KGRK/GRK METAR and TAF weather

Enter ICAO airport designator
Station Type Date Time Source
KGRK METAR 2022/01/27 23:06 UTC NOAA

KGRK 272306Z AUTO 00000KT 6SM HZ BKN046 BKN250 14/05 A3018 RMK AO2 SLP221


Station Type Date Time Source
KGRK Decoded METAR 2022/01/27 23:06 UTC NOAA

Fort Hood, Robert Gray AAF Ft Hood, TX, United States (KGRK) 31-04N 097-49W
Jan 27, 2022 - 06:06 PM EST / 2022.01.27 2306 UTC
Wind: Calm:0
Visibility: 6 mile(s):0
Sky conditions: mostly cloudy
Weather: haze
Temperature: 57 F (14 C)
Dew Point: 41 F (5 C)
Relative Humidity: 54%
Pressure (altimeter): 30.18 in. Hg (1022 hPa)
ob: KGRK 272306Z AUTO 00000KT 6SM HZ BKN046 BKN250 14/05 A3018 RMK AO2 SLP221
cycle: 23

Station Type Date Time Source
KGRK TAF 2022/01/27 16:09 UTC NOAA

TAF KGRK 271600Z 2716/2822 VRB06KT 9999 BKN030 BKN210 QNH3016INS
BECMG 2801/2802 VRB06KT 9999 BKN024 QNH3020INS
BECMG 2807/2808 02009KT 9999 BKN025 QNH3033INS
BECMG 2809/2810 36006KT 9999 SCT025 QNH3036INS
BECMG 2812/2813 35012G18KT 9999 SKC 510003 QNH3051INS
BECMG 2815/2816 01015G25KT 9999 SKC 510003 QNH3047INS
BECMG 2820/2821 35012KT 9999 SKC 510003 QNH3042INS TX15/2722Z TN01/2814Z

Example: see airport list